Billy Bishop Toronto City Centre Airport

CYTZ · Ontario, Canadá

METAR pasados CYTZ · Aeropuerto Toronto City Centre

A continuación puedes ver los METAR de los últimos días. Selecciona un año para ver los METAR más antiguos, desde el año 2007 en adelante.

4 de diciembre de 2022

Hora Código Tiempo Temp. Visibilidad Cielo nuboso Viento METAR/SPECI
09:00
V
-1 °C 9 mi - 250° 250° 9 - 15 kt METAR CYTZ 041400Z AUTO 25009G15KT 9SM FEW100 M01/M06 A3020 RMK SLP233
08:00
V
-2 °C 9 mi - 260° 260° 9 - 15 kt METAR CYTZ 041300Z AUTO 26009G15KT 9SM CLR M02/M07 A3020 RMK SLP234
07:00
V
-1 °C 9 mi - 270° 270° 12 kt METAR CYTZ 041200Z AUTO 27012KT 9SM CLR M01/M06 A3021 RMK SLP237
06:00
V
-1 °C 9 mi - 280° 280° 14 kt METAR CYTZ 041100Z AUTO 28014KT 9SM CLR M01/M07 A3022 RMK SLP240
05:00
V
-1 °C 9 mi - 270° 270° 10 - 15 kt METAR CYTZ 041000Z AUTO 27010G15KT 9SM CLR M01/M06 A3023 RMK SLP242
04:00
V
0 °C 9 mi - 270° 270° 12 - 18 kt METAR CYTZ 040900Z AUTO 27012G18KT 9SM SCT046 M00/M08 A3023 RMK SLP243
03:00
V
1 °C 9 mi 5.000 ft 280° 280° 16 - 22 kt METAR CYTZ 040800Z AUTO 28016G22KT 9SM OVC050 01/M09 A3024 RMK SLP245
02:00
V
1 °C 9 mi 5.500 ft 260° 260° 17 - 22 kt METAR CYTZ 040700Z AUTO 26017G22KT 9SM OVC055 01/M07 A3023 RMK SLP243
01:00
V
1 °C 9 mi 4.700 ft 270° 270° 16 - 21 kt METAR CYTZ 040600Z AUTO 27016G21KT 9SM BKN047 OVC055 01/M06 A3023 RMK SLP243
00:42
V
1 °C 9 mi 3.400 ft 270° 270° 18 - 23 kt METAR CYTZ 040542Z AUTO 27018G23KT 9SM BKN034 OVC044 01/M06 A3022 RMK SLP240
00:32
V
1 °C 9 mi 3.400 ft 270° 270° 15 - 22 kt METAR CYTZ 040532Z AUTO 27015G22KT 9SM -RA OVC034 01/M05 A3023 RMK SLP241
00:26
V
1 °C 9 mi 3.400 ft 260° 260° 16 - 22 kt METAR CYTZ 040526Z AUTO 26016G22KT 9SM -RASN OVC034 01/M05 A3023 RMK SLP242
00:21
V
1 °C 9 mi 3.400 ft 270° 270° 15 - 21 kt METAR CYTZ 040521Z AUTO 27015G21KT 9SM -SN OVC034 01/M05 A3023 RMK SLP243
00:15
V
1 °C 9 mi 3.400 ft 270° 270° 15 - 21 kt METAR CYTZ 040515Z AUTO 27015G21KT 240V310 9SM -RASN OVC034 01/M05 A3023 RMK SLP243
00:12
V
1 °C 9 mi 3.400 ft 270° 270° 15 kt METAR CYTZ 040512Z AUTO 27015KT 240V310 9SM -RA OVC034 01/M05 A3023 RMK SLP244
00:09
V
1 °C 9 mi 3.400 ft 280° 280° 12 - 18 kt METAR CYTZ 040509Z AUTO 28012G18KT 240V310 9SM -RA -UP OVC034 01/M05 A3023 RMK SLP244
00:03
V
1 °C 9 mi 3.400 ft 300° 300° 14 kt METAR CYTZ 040503Z AUTO 30014KT 9SM -SN -UP OVC034 01/M05 A3024 RMK SLP245

3 de diciembre de 2022

Hora Código Tiempo Temp. Visibilidad Cielo nuboso Viento METAR/SPECI
23:41
V
1 °C 9 mi 3.400 ft 310° 310° 10 - 17 kt METAR CYTZ 040441Z AUTO 31010G17KT 270V330 9SM -SN OVC034 01/M06 A3023 RMK SLP242
23:33
V
1 °C 9 mi 3.400 ft 280° 280° 11 - 16 kt METAR CYTZ 040433Z AUTO 28011G16KT 9SM -SN -UP OVC034 01/M05 A3023 RMK SLP244
23:30
V
1 °C 9 mi 3.600 ft 300° 300° 11 - 16 kt SPECI CYTZ 040430Z AUTO 30011G16KT 9SM -RA -UP OVC036 01/M05 A3023 RMK SLP243
23:29
V
1 °C 9 mi 3.600 ft 290° 290° 11 - 16 kt METAR CYTZ 040429Z AUTO 29011G16KT 9SM -RASN -UP OVC036 01/M05 A3023 RMK SLP243
23:22
V
1 °C 9 mi 3.600 ft 270° 270° 13 - 18 kt METAR CYTZ 040422Z AUTO 27013G18KT 9SM -RASN OVC036 01/M05 A3023 RMK SLP243
23:19
V
1 °C 9 mi 3.600 ft 270° 270° 12 - 18 kt METAR CYTZ 040419Z AUTO 27012G18KT 9SM -SN OVC036 01/M05 A3023 RMK SLP242
23:12
V
1 °C 9 mi 3.800 ft 270° 270° 12 - 17 kt SPECI CYTZ 040412Z AUTO 27012G17KT 9SM -SN -UP OVC038 01/M06 A3023 RMK SLP243
23:09
V
1 °C 9 mi 3.800 ft 280° 280° 13 kt METAR CYTZ 040409Z AUTO 28013KT 9SM -RASN -UP OVC038 01/M06 A3023 RMK SLP241
23:00
V
1 °C 9 mi 4.000 ft 280° 280° 11 - 16 kt METAR CYTZ 040400Z AUTO 28011G16KT 9SM -RA OVC040 01/M06 A3023 RMK SLP240
22:42
V
2 °C 9 mi 4.400 ft 280° 280° 13 kt METAR CYTZ 040342Z AUTO 28013KT 9SM -RA OVC044 02/M06 A3023 RMK SLP242
22:00
V
2 °C 9 mi 5.000 ft 290° 290° 13 - 20 kt METAR CYTZ 040300Z AUTO 29013G20KT 9SM OVC050 02/M07 A3021 RMK SLP236
21:00
V
2 °C 9 mi 4.800 ft 290° 290° 15 - 23 kt METAR CYTZ 040200Z AUTO 29015G23KT 9SM OVC048 02/M07 A3021 RMK SLP234
20:00
V
2 °C 9 mi 5.000 ft 280° 280° 13 - 19 kt METAR CYTZ 040100Z AUTO 28013G19KT 9SM OVC050 02/M06 A3020 RMK SLP231
19:00
V
3 °C 9 mi 5.000 ft 280° 280° 18 - 26 kt METAR CYTZ 040000Z AUTO 28018G26KT 9SM OVC050 03/M06 A3018 RMK SLP225
18:00
V
3 °C 9 mi 5.000 ft 280° 280° 17 - 25 kt METAR CYTZ 032300Z AUTO 28017G25KT 9SM OVC050 03/M06 A3015 RMK PRESRR SLP216
17:00
V
3 °C 9 mi 4.400 ft 290° 290° 19 - 31 kt METAR CYTZ 032200Z AUTO 29019G31KT 9SM OVC044 03/M04 A3011 RMK SLP200
16:00
V
3 °C 9 mi - 300° 300° 21 - 29 kt METAR CYTZ 032100Z AUTO 30021G29KT 9SM SCT050 03/M06 A3008 RMK PRESRR SLP190
15:00
V
5 °C 9 mi - 300° 300° 25 - 41 kt METAR CYTZ 032000Z AUTO 30025G41KT 9SM FEW041 05/M04 A3001 RMK PRESRR SLP167
14:00
V
6 °C 9 mi 4.600 ft 290° 290° 27 - 38 kt METAR CYTZ 031900Z AUTO 29027G38KT 9SM BKN046 06/M03 A2995 RMK PRESRR SLP145
13:00
V
6 °C 9 mi 4.400 ft 290° 290° 23 - 44 kt METAR CYTZ 031800Z AUTO 29023G44KT 9SM BKN044 BKN050 06/M01 A2987 RMK PRESRR SLP118
12:13
V
7 °C 9 mi 3.600 ft 290° 290° 32 - 44 kt METAR CYTZ 031713Z AUTO 29032G44KT 9SM BKN036 07/00 A2981 RMK SLP097
12:00
V
7 °C 9 mi 3.400 ft 290° 290° 22 - 36 kt METAR CYTZ 031700Z AUTO 29022G36KT 9SM BKN034 BKN100 07/01 A2980 RMK PRESRR SLP094
11:21
V
7 °C 9 mi 3.400 ft 290° 290° 34 - 41 kt METAR CYTZ 031621Z AUTO 29034G41KT 9SM SCT024 BKN034 BKN050 OVC072 07/03 A2972 RMK SLP069
11:19
V
8 °C 9 mi 3.400 ft 300° 300° 24 - 40 kt METAR CYTZ 031619Z AUTO 30024G40KT 9SM SCT022 SCT026 BKN034 OVC072 08/04 A2972 RMK PRESRR SLP069
11:14
M
8 °C 9 mi 2.200 ft 290° 290° 19 - 35 kt METAR CYTZ 031614Z AUTO 29019G35KT 9SM BKN022 BKN036 BKN047 OVC072 08/05 A2973 RMK PRESRR SLP072
11:09
V
8 °C 9 mi 4.700 ft 290° 290° 25 - 35 kt SPECI CYTZ 031609Z AUTO 29025G35KT 9SM SCT024 SCT036 BKN047 OVC072 08/04 A2972 RMK PRESRR SLP067
11:00
V
8 °C 9 mi 4.500 ft 290° 290° 22 - 39 kt METAR CYTZ 031600Z AUTO 29022G39KT 9SM -RA SCT022 SCT029 BKN045 OVC072 08/06 A2970 RMK PRESRR SLP060
10:55
V
8 °C 7 mi 4.300 ft 290° 290° 30 - 39 kt METAR CYTZ 031555Z AUTO 29030G39KT 7SM -RA FEW010 SCT023 BKN043 OVC071 08/05 A2969 RMK PRESRR SLP056
10:53
V
9 °C 5 mi 4.100 ft 290° 290° 31 - 46 kt SPECI CYTZ 031553Z AUTO 29031G46KT 5SM -RA FEW010 SCT021 BKN041 OVC071 09/06 A2969 RMK PRESRR SLP056
10:44
M
9 °C 4 mi 2.300 ft 270° 270° 39 - 47 kt METAR CYTZ 031544Z AUTO 27039G47KT 4SM -RA BR FEW010 BKN023 BKN030 OVC038 09/07 A2967 RMK SLP049
10:35
I
8 °C 3 mi 2.900 ft 240° 240° 23 - 28 kt METAR CYTZ 031535Z AUTO 24023G28KT 3SM -RA BR FEW012 SCT021 BKN029 OVC039 08/08 A2966 RMK PRESRR SLP046
10:32
I
8 °C 3 mi 2.900 ft 240° 240° 18 - 27 kt METAR CYTZ 031532Z AUTO 24018G27KT 3SM +RA BR FEW012 SCT021 BKN029 OVC038 08/08 A2965 RMK PRESRR SLP044
10:26
M
8 °C 5 mi 2.700 ft 220° 220° 18 - 28 kt METAR CYTZ 031526Z AUTO 22018G28KT 5SM RA BR SCT021 BKN027 BKN032 OVC039 08/08 A2964 RMK SLP039
10:22
M
8 °C 9 mi 2.300 ft 210° 210° 22 - 28 kt METAR CYTZ 031522Z AUTO 21022G28KT 9SM -RA BKN023 BKN030 OVC041 08/08 A2963 RMK SLP036
10:15
V
8 °C 9 mi 3.000 ft 200° 200° 21 - 26 kt METAR CYTZ 031515Z AUTO 20021G26KT 9SM -RA FEW021 SCT026 BKN030 OVC040 08/08 A2962 RMK SLP035
10:08
M
8 °C 9 mi 2.400 ft 200° 200° 21 - 26 kt SPECI CYTZ 031508Z AUTO 20021G26KT 9SM -RA BKN024 OVC032 08/08 A2963 RMK SLP037
10:00
M
8 °C 9 mi 2.200 ft 200° 200° 19 - 25 kt METAR CYTZ 031500Z AUTO 20019G25KT 9SM -RA BKN022 OVC027 08/08 A2963 RMK SLP036
09:00
M
8 °C 9 mi 1.700 ft 200° 200° 20 - 25 kt METAR CYTZ 031400Z AUTO 20020G25KT 9SM -RA OVC017 08/08 A2967 RMK SLP051
08:58
M
8 °C 9 mi 1.700 ft 200° 200° 20 - 25 kt METAR CYTZ 031358Z AUTO 20020G25KT 9SM -RA OVC017 08/08 A2967 RMK SLP050
08:00
M
8 °C 9 mi 1.900 ft 210° 210° 17 - 23 kt METAR CYTZ 031300Z AUTO 21017G23KT 9SM OVC019 08/07 A2970 RMK SLP060
07:44
M
8 °C 9 mi 1.900 ft 210° 210° 16 - 23 kt METAR CYTZ 031244Z AUTO 21016G23KT 9SM OVC019 08/07 A2970 RMK SLP062
07:39
M
8 °C 6 mi 1.900 ft 210° 210° 15 - 23 kt METAR CYTZ 031239Z AUTO 21015G23KT 6SM -RA BR OVC019 08/07 A2970 RMK SLP062
07:17
M
8 °C 5 mi 1.200 ft 210° 210° 14 - 21 kt METAR CYTZ 031217Z AUTO 21014G21KT 5SM -RA BR BKN012 OVC019 08/07 A2970 RMK SLP063
07:06
M
8 °C 6 mi 1.200 ft 210° 210° 14 - 20 kt SPECI CYTZ 031206Z AUTO 21014G20KT 6SM -RA BR OVC012 08/07 A2971 RMK SLP064
07:00
I
8 °C 3 mi 1.200 ft 210° 210° 14 - 21 kt METAR CYTZ 031200Z AUTO 21014G21KT 3SM -RA BR OVC012 08/07 A2971 RMK PCPN 0.5MM PAST HR SLP064
06:23
M
8 °C 5 mi 1.400 ft 200° 200° 16 - 23 kt METAR CYTZ 031123Z AUTO 20016G23KT 5SM -RA BR OVC014 08/07 A2971 RMK SLP066
06:00
M
8 °C 9 mi 1.800 ft 200° 200° 17 kt METAR CYTZ 031100Z AUTO 20017KT 9SM -RA OVC018 08/07 A2971 RMK SLP066
05:47
M
8 °C 6 mi 1.800 ft 200° 200° 17 - 24 kt SPECI CYTZ 031047Z AUTO 20017G24KT 6SM -RA BR OVC018 08/07 A2972 RMK SLP067
05:37
M
8 °C 5 mi 1.600 ft 200° 200° 18 - 24 kt METAR CYTZ 031037Z AUTO 20018G24KT 5SM -RA BR OVC016 08/07 A2972 RMK SLP068
05:05
M
8 °C 9 mi 1.900 ft 210° 210° 12 - 17 kt SPECI CYTZ 031005Z AUTO 21012G17KT 9SM -RA BKN019 OVC024 08/06 A2973 RMK SLP072
05:00
M
8 °C 9 mi 2.100 ft 210° 210° 10 - 15 kt METAR CYTZ 031000Z AUTO 21010G15KT 9SM OVC021 08/06 A2973 RMK SLP072
04:53
M
8 °C 9 mi 2.400 ft 220° 220° 9 - 18 kt METAR CYTZ 030953Z AUTO 22009G18KT 9SM OVC024 08/05 A2973 RMK SLP073
04:09
V
9 °C 9 mi 3.400 ft 210° 210° 18 kt METAR CYTZ 030909Z AUTO 21018KT 9SM OVC034 09/05 A2974 RMK SLP075
03:00
V
8 °C 9 mi 4.200 ft 180° 180° 8 kt METAR CYTZ 030800Z AUTO 18008KT 9SM OVC042 08/04 A2977 RMK SLP085
02:00
V
8 °C 9 mi 4.200 ft 170° 170° 9 kt METAR CYTZ 030700Z AUTO 17009KT 9SM OVC042 08/04 A2981 RMK SLP098
01:00
V
8 °C 9 mi 4.500 ft 190° 190° 7 kt METAR CYTZ 030600Z AUTO 19007KT 9SM OVC045 08/03 A2984 RMK SLP107
00:28
V
6 °C 9 mi 5.000 ft Var Var 3 kt METAR CYTZ 030528Z AUTO VRB03KT 9SM BKN050 OVC055 06/03 A2987 RMK SLP119
00:00
V
7 °C 9 mi 5.500 ft Var Var 2 kt METAR CYTZ 030500Z AUTO VRB02KT 9SM -RA OVC055 07/03 A2989 RMK SLP127

2 de diciembre de 2022

Hora Código Tiempo Temp. Visibilidad Cielo nuboso Viento METAR/SPECI
23:15
V
7 °C 6 mi 5.500 ft 100° 100° 4 kt METAR CYTZ 030415Z AUTO 10004KT 050V170 6SM -RA OVC055 07/02 A2990 RMK SLP127
23:08
V
7 °C 5 mi 5.000 ft Var Var 2 kt METAR CYTZ 030408Z AUTO VRB02KT 5SM -RA OVC050 07/02 A2991 RMK SLP132
22:51
V
7 °C 9 mi 5.500 ft 060° 060° 8 kt METAR CYTZ 030351Z AUTO 06008KT 9SM -RA BKN055 OVC091 07/02 A2990 RMK SLP128
22:25
V
6 °C 9 mi 9.100 ft 070° 070° 8 kt METAR CYTZ 030325Z AUTO 07008KT 9SM OVC091 06/02 A2990 RMK PRESFR SLP131
22:14
V
6 °C 9 mi 8.600 ft 070° 070° 8 kt METAR CYTZ 030314Z AUTO 07008KT 9SM -RA OVC086 06/02 A2992 RMK SLP135
22:00
V
6 °C 9 mi 9.100 ft 050° 050° 9 kt METAR CYTZ 030300Z AUTO 05009KT 9SM OVC091 06/02 A2993 RMK SLP139
21:33
V
7 °C 9 mi 9.100 ft 070° 070° 6 kt METAR CYTZ 030233Z AUTO 07006KT 040V130 9SM OVC091 07/01 A2994 RMK SLP142
21:22
V
7 °C 9 mi 8.600 ft 070° 070° 6 kt METAR CYTZ 030222Z AUTO 07006KT 050V130 9SM -RA OVC086 07/01 A2995 RMK SLP145
21:00
V
7 °C 9 mi 11.000 ft 100° 100° 4 kt METAR CYTZ 030200Z AUTO 10004KT 070V150 9SM SCT086 BKN110 BKN210 07/01 A2995 RMK SLP146
20:00
V
6 °C 9 mi 9.600 ft 080° 080° 7 kt METAR CYTZ 030100Z AUTO 08007KT 050V130 9SM OVC096 06/02 A2998 RMK SLP157
19:00
V
6 °C 9 mi 9.600 ft 060° 060° 10 kt METAR CYTZ 030000Z AUTO 06010KT 040V100 9SM BKN096 OVC120 06/01 A3001 RMK SLP168
18:30
V
6 °C 9 mi 9.100 ft 140° 140° 8 kt METAR CYTZ 022330Z AUTO 14008KT 9SM OVC091 06/01 A3003 RMK SLP174
18:20
V
6 °C 9 mi 8.600 ft 120° 120° 10 kt METAR CYTZ 022320Z AUTO 12010KT 060V140 9SM -RA OVC086 06/01 A3004 RMK SLP177
18:04
V
6 °C 9 mi 8.100 ft 090° 090° 5 kt METAR CYTZ 022304Z AUTO 09005KT 050V130 9SM -RA OVC081 06/01 A3005 RMK SLP180
18:01
V
6 °C 9 mi 8.100 ft 090° 090° 7 kt METAR CYTZ 022301Z AUTO 09007KT 060V140 9SM OVC081 06/01 A3004 RMK PRESFR SLP178
18:00
V
6 °C 9 mi 8.100 ft 090° 090° 7 kt METAR CYTZ 022300Z AUTO 09007KT 060V140 9SM -RA OVC081 06/01 A3005 RMK PRESFR SLP179
17:50
V
6 °C 9 mi 8.400 ft 130° 130° 9 - 15 kt SPECI CYTZ 022250Z AUTO 13009G15KT 9SM -RA FEW071 OVC084 06/01 A3006 RMK SLP183
17:27
V
6 °C 9 mi 8.100 ft 140° 140° 9 - 15 kt METAR CYTZ 022227Z AUTO 14009G15KT 9SM -RA FEW066 BKN081 OVC092 06/00 A3006 RMK SLP185
17:09
V
6 °C 9 mi 8.100 ft 130° 130° 5 kt METAR CYTZ 022209Z AUTO 13005KT 100V160 9SM OVC081 06/01 A3007 RMK SLP188
16:47
V
6 °C 9 mi 8.400 ft 140° 140° 6 kt METAR CYTZ 022147Z AUTO 14006KT 120V180 9SM -RA FEW066 OVC084 06/00 A3008 RMK SLP191
16:33
V
6 °C 9 mi 9.100 ft 140° 140° 4 kt METAR CYTZ 022133Z AUTO 14004KT 9SM OVC091 06/01 A3009 RMK SLP194
16:22
V
6 °C 9 mi 9.100 ft 130° 130° 5 kt METAR CYTZ 022122Z AUTO 13005KT 100V160 9SM -RA BKN091 OVC110 06/00 A3009 RMK SLP192
16:00
V
6 °C 9 mi 9.100 ft 130° 130° 8 kt METAR CYTZ 022100Z AUTO 13008KT 9SM BKN091 OVC110 06/M01 A3009 RMK PRESFR SLP195
15:55
V
6 °C 9 mi 9.100 ft 140° 140° 8 kt METAR CYTZ 022055Z AUTO 14008KT 9SM BKN091 OVC110 06/M01 A3010 RMK SLP197
15:45
V
6 °C 9 mi 8.600 ft 150° 150° 7 kt SPECI CYTZ 022045Z AUTO 15007KT 9SM -RA OVC086 06/M01 A3011 RMK SLP201
15:32
V
6 °C 9 mi 8.600 ft 140° 140° 6 kt METAR CYTZ 022032Z AUTO 14006KT 9SM OVC086 06/M02 A3011 RMK PRESRR SLP201
15:19
V
6 °C 9 mi 9.000 ft 130° 130° 7 kt METAR CYTZ 022019Z AUTO 13007KT 9SM -RA SCT081 BKN090 BKN110 BKN130 06/M01 A3010 RMK PRESFR SLP197
15:00
V
6 °C 9 mi 8.100 ft 130° 130° 8 kt METAR CYTZ 022000Z AUTO 13008KT 9SM BKN081 BKN100 BKN120 06/M01 A3011 RMK SLP201
14:00
V
6 °C 9 mi 8.600 ft 150° 150° 8 kt METAR CYTZ 021900Z AUTO 15008KT 9SM OVC086 06/M02 A3014 RMK SLP211
13:00
V
5 °C 9 mi 8.600 ft 170° 170° 8 kt METAR CYTZ 021800Z AUTO 17008KT 9SM OVC086 05/M01 A3018 RMK SLP224
12:00
V
4 °C 9 mi 9.100 ft 160° 160° 10 - 18 kt METAR CYTZ 021700Z AUTO 16010G18KT 9SM OVC091 04/M02 A3021 RMK SLP236
11:00
V
3 °C 9 mi 8.600 ft 150° 150° 12 - 18 kt METAR CYTZ 021600Z AUTO 15012G18KT 9SM OVC086 03/M03 A3025 RMK PRESFR SLP249
10:00
V
3 °C 9 mi 9.100 ft 150° 150° 11 - 17 kt METAR CYTZ 021500Z AUTO 15011G17KT 9SM BKN091 OVC120 03/M01 A3028 RMK SLP260
09:00
V
4 °C 9 mi 12.000 ft 160° 160° 6 - 15 kt METAR CYTZ 021400Z AUTO 16006G15KT 9SM OVC120 04/M02 A3031 RMK SLP268
08:00
V
3 °C 9 mi 11.000 ft 170° 170° 9 - 17 kt METAR CYTZ 021300Z AUTO 17009G17KT 9SM OVC110 03/M02 A3032 RMK SLP272
07:00
V
3 °C 9 mi 11.000 ft 170° 170° 9 kt METAR CYTZ 021200Z AUTO 17009KT 9SM OVC110 03/M02 A3033 RMK SLP277
06:00
V
3 °C 9 mi 12.000 ft 210° 210° 11 kt METAR CYTZ 021100Z AUTO 21011KT 9SM OVC120 03/M02 A3034 RMK SLP280
05:00
V
2 °C 9 mi 12.000 ft 200° 200° 13 - 18 kt METAR CYTZ 021000Z AUTO 20013G18KT 9SM OVC120 02/M02 A3035 RMK SLP284

Nosotros y terceros seguimos tu comportamiento en Internet en nuestro sitio web con cookies. Si continúas, asumimos que estás de acuerdo con nuestra Política de cookies.